sensor_id;sensor_type;location;lat;lon;timestamp;pressure;altitude;pressure_sealevel;temperature;humidity
48964;BME280;34776;48.180;16.420;2022-12-07T00:01:24;99686.78;;;6.23;69.82
48964;BME280;34776;48.180;16.420;2022-12-07T00:03:53;99688.56;;;6.22;69.70
48964;BME280;34776;48.180;16.420;2022-12-07T00:06:19;99681.91;;;6.12;69.62
48964;BME280;34776;48.180;16.420;2022-12-07T00:08:45;99686.50;;;6.07;69.90
48964;BME280;34776;48.180;16.420;2022-12-07T00:11:16;99682.03;;;6.09;70.13
48964;BME280;34776;48.180;16.420;2022-12-07T00:13:43;99677.66;;;6.08;69.90
48964;BME280;34776;48.180;16.420;2022-12-07T00:16:13;99675.88;;;6.08;70.00
48964;BME280;34776;48.180;16.420;2022-12-07T00:18:39;99677.66;;;6.08;70.09
48964;BME280;34776;48.180;16.420;2022-12-07T00:21:11;99678.66;;;6.04;70.05
48964;BME280;34776;48.180;16.420;2022-12-07T00:23:36;99673.44;;;6.02;69.95
48964;BME280;34776;48.180;16.420;2022-12-07T00:26:11;99674.16;;;6.07;70.29
48964;BME280;34776;48.180;16.420;2022-12-07T00:28:37;99670.72;;;6.05;70.37
48964;BME280;34776;48.180;16.420;2022-12-07T00:31:08;99669.72;;;6.08;70.33
48964;BME280;34776;48.180;16.420;2022-12-07T00:33:34;99670.66;;;6.07;70.39
48964;BME280;34776;48.180;16.420;2022-12-07T00:36:01;99665.38;;;6.07;70.50
48964;BME280;34776;48.180;16.420;2022-12-07T00:38:30;99673.34;;;6.05;70.41
48964;BME280;34776;48.180;16.420;2022-12-07T00:41:04;99669.84;;;6.05;70.55
48964;BME280;34776;48.180;16.420;2022-12-07T00:43:30;99672.53;;;6.03;70.73
48964;BME280;34776;48.180;16.420;2022-12-07T00:45:56;99666.41;;;6.03;70.85
48964;BME280;34776;48.180;16.420;2022-12-07T00:48:22;99664.66;;;6.02;70.95
48964;BME280;34776;48.180;16.420;2022-12-07T00:53:23;99665.47;;;6.04;70.91
48964;BME280;34776;48.180;16.420;2022-12-07T01:09:40;99666.88;;;5.87;71.87
48964;BME280;34776;48.180;16.420;2022-12-07T01:12:06;99675.72;;;5.86;71.97
48964;BME280;34776;48.180;16.420;2022-12-07T01:14:31;99678.25;;;5.89;71.97
48964;BME280;34776;48.180;16.420;2022-12-07T01:16:56;99681.00;;;5.86;72.11
48964;BME280;34776;48.180;16.420;2022-12-07T01:19:22;99682.81;;;5.84;72.24
48964;BME280;34776;48.180;16.420;2022-12-07T01:21:47;99678.63;;;5.79;72.52
48964;BME280;34776;48.180;16.420;2022-12-07T01:24:12;99679.47;;;5.79;72.66
48964;BME280;34776;48.180;16.420;2022-12-07T01:26:38;99670.75;;;5.77;72.71
48964;BME280;34776;48.180;16.420;2022-12-07T01:29:03;99672.56;;;5.75;72.70
48964;BME280;34776;48.180;16.420;2022-12-07T01:31:29;99670.94;;;5.71;72.95
48964;BME280;34776;48.180;16.420;2022-12-07T01:33:56;99675.53;;;5.66;73.17
48964;BME280;34776;48.180;16.420;2022-12-07T01:36:35;99676.53;;;5.62;73.43
48964;BME280;34776;48.180;16.420;2022-12-07T01:39:04;99670.47;;;5.60;73.59
48964;BME280;34776;48.180;16.420;2022-12-07T01:41:33;99671.28;;;5.62;73.78
48964;BME280;34776;48.180;16.420;2022-12-07T01:44:27;99673.75;;;5.66;73.69
48964;BME280;34776;48.180;16.420;2022-12-07T01:46:56;99674.41;;;5.73;73.60
48964;BME280;34776;48.180;16.420;2022-12-07T01:49:26;99665.59;;;5.74;73.49
48964;BME280;34776;48.180;16.420;2022-12-07T01:52:43;99667.31;;;5.75;73.56
48964;BME280;34776;48.180;16.420;2022-12-07T01:54:47;99656.66;;;5.78;73.51
48964;BME280;34776;48.180;16.420;2022-12-07T01:57:15;99661.72;;;5.84;73.46
48964;BME280;34776;48.180;16.420;2022-12-07T01:59:45;99663.56;;;5.82;73.46
48964;BME280;34776;48.180;16.420;2022-12-07T02:02:20;99654.78;;;5.82;73.70
48964;BME280;34776;48.180;16.420;2022-12-07T02:04:47;99656.50;;;5.83;73.70
48964;BME280;34776;48.180;16.420;2022-12-07T02:07:13;99657.31;;;5.85;73.73
48964;BME280;34776;48.180;16.420;2022-12-07T02:09:39;99657.16;;;5.89;73.72
48964;BME280;34776;48.180;16.420;2022-12-07T02:12:05;99656.25;;;5.90;73.44
48964;BME280;34776;48.180;16.420;2022-12-07T02:14:30;99649.34;;;5.86;73.63
48964;BME280;34776;48.180;16.420;2022-12-07T02:17:11;99659.78;;;5.89;73.74
48964;BME280;34776;48.180;16.420;2022-12-07T02:20:00;99652.00;;;5.86;73.62
48964;BME280;34776;48.180;16.420;2022-12-07T02:28:34;99643.22;;;5.86;73.72
48964;BME280;34776;48.180;16.420;2022-12-07T02:31:13;99648.44;;;5.87;73.69
48964;BME280;34776;48.180;16.420;2022-12-07T02:33:56;99649.25;;;5.89;73.63
48964;BME280;34776;48.180;16.420;2022-12-07T02:36:28;99654.63;;;5.86;73.63
48964;BME280;34776;48.180;16.420;2022-12-07T02:39:17;99658.28;;;5.82;73.58
48964;BME280;34776;48.180;16.420;2022-12-07T02:41:55;99653.09;;;5.79;73.94
48964;BME280;34776;48.180;16.420;2022-12-07T02:44:26;99654.84;;;5.80;74.03
48964;BME280;34776;48.180;16.420;2022-12-07T02:46:59;99659.31;;;5.78;74.04
48964;BME280;34776;48.180;16.420;2022-12-07T02:49:27;99669.00;;;5.78;74.04
48964;BME280;34776;48.180;16.420;2022-12-07T02:51:53;99659.34;;;5.77;74.17
48964;BME280;34776;48.180;16.420;2022-12-07T02:54:19;99661.13;;;5.76;74.03
48964;BME280;34776;48.180;16.420;2022-12-07T03:00:09;99658.44;;;5.78;74.09
48964;BME280;34776;48.180;16.420;2022-12-07T03:08:20;99659.47;;;5.74;74.18
48964;BME280;34776;48.180;16.420;2022-12-07T03:11:00;99656.88;;;5.72;74.33
48964;BME280;34776;48.180;16.420;2022-12-07T03:16:09;99659.34;;;5.77;74.31
48964;BME280;34776;48.180;16.420;2022-12-07T03:18:51;99651.47;;;5.75;74.30
48964;BME280;34776;48.180;16.420;2022-12-07T03:21:21;99663.84;;;5.73;74.41
48964;BME280;34776;48.180;16.420;2022-12-07T03:23:54;99660.31;;;5.74;74.38
48964;BME280;34776;48.180;16.420;2022-12-07T03:26:26;99654.94;;;5.77;74.56
48964;BME280;34776;48.180;16.420;2022-12-07T03:28:59;99648.72;;;5.80;74.45
48964;BME280;34776;48.180;16.420;2022-12-07T03:31:31;99654.78;;;5.82;74.44
48964;BME280;34776;48.180;16.420;2022-12-07T03:34:21;99646.88;;;5.82;74.33
48964;BME280;34776;48.180;16.420;2022-12-07T03:36:53;99656.50;;;5.83;74.62
48964;BME280;34776;48.180;16.420;2022-12-07T03:39:30;99651.19;;;5.84;74.48
48964;BME280;34776;48.180;16.420;2022-12-07T03:41:59;99652.97;;;5.84;74.48
48964;BME280;34776;48.180;16.420;2022-12-07T03:44:27;99663.56;;;5.82;74.36
48964;BME280;34776;48.180;16.420;2022-12-07T03:54:35;99660.00;;;5.83;74.40
48964;BME280;34776;48.180;16.420;2022-12-07T03:57:02;99665.25;;;5.83;74.24
48964;BME280;34776;48.180;16.420;2022-12-07T03:59:29;99668.84;;;5.82;74.27
48964;BME280;34776;48.180;16.420;2022-12-07T04:01:57;99664.56;;;5.78;74.51
48964;BME280;34776;48.180;16.420;2022-12-07T04:04:26;99660.19;;;5.77;74.22
48964;BME280;34776;48.180;16.420;2022-12-07T04:06:51;99660.19;;;5.77;74.21
48964;BME280;34776;48.180;16.420;2022-12-07T04:09:17;99663.66;;;5.79;74.38
48964;BME280;34776;48.180;16.420;2022-12-07T04:11:43;99665.25;;;5.83;74.42
48964;BME280;34776;48.180;16.420;2022-12-07T04:14:08;99666.06;;;5.85;74.23
48964;BME280;34776;48.180;16.420;2022-12-07T04:16:44;99667.91;;;5.83;74.02
48964;BME280;34776;48.180;16.420;2022-12-07T04:19:09;99662.63;;;5.83;74.28
48964;BME280;34776;48.180;16.420;2022-12-07T04:21:35;99668.84;;;5.82;74.20
48964;BME280;34776;48.180;16.420;2022-12-07T04:24:00;99672.38;;;5.81;74.29
48964;BME280;34776;48.180;16.420;2022-12-07T04:26:26;99659.31;;;5.78;74.21
48964;BME280;34776;48.180;16.420;2022-12-07T04:28:51;99669.13;;;5.73;74.49
48964;BME280;34776;48.180;16.420;2022-12-07T04:31:16;99676.34;;;5.68;74.38
48964;BME280;34776;48.180;16.420;2022-12-07T04:33:42;99670.94;;;5.71;74.55
48964;BME280;34776;48.180;16.420;2022-12-07T04:36:07;99667.22;;;5.78;74.24
48964;BME280;34776;48.180;16.420;2022-12-07T04:38:33;99675.94;;;5.80;74.49
48964;BME280;34776;48.180;16.420;2022-12-07T04:40:58;99660.06;;;5.82;74.49
48964;BME280;34776;48.180;16.420;2022-12-07T04:43:28;99662.75;;;5.80;74.33
48964;BME280;34776;48.180;16.420;2022-12-07T04:45:54;99662.91;;;5.76;74.17
48964;BME280;34776;48.180;16.420;2022-12-07T04:48:19;99660.19;;;5.77;74.42
48964;BME280;34776;48.180;16.420;2022-12-07T04:50:47;99670.00;;;5.74;74.29
48964;BME280;34776;48.180;16.420;2022-12-07T04:53:14;99666.56;;;5.72;74.23
48964;BME280;34776;48.180;16.420;2022-12-07T04:55:40;99662.22;;;5.69;74.36
48964;BME280;34776;48.180;16.420;2022-12-07T04:58:05;99656.09;;;5.68;74.16
48964;BME280;34776;48.180;16.420;2022-12-07T05:00:30;99662.31;;;5.67;74.40
48964;BME280;34776;48.180;16.420;2022-12-07T05:02:56;99658.69;;;5.70;74.37
48964;BME280;34776;48.180;16.420;2022-12-07T05:05:21;99665.69;;;5.71;74.20
48964;BME280;34776;48.180;16.420;2022-12-07T05:07:46;99659.56;;;5.70;74.27
48964;BME280;34776;48.180;16.420;2022-12-07T05:10:12;99662.78;;;5.79;74.30
48964;BME280;34776;48.180;16.420;2022-12-07T05:12:37;99663.50;;;5.84;74.02
48964;BME280;34776;48.180;16.420;2022-12-07T05:15:04;99657.31;;;5.85;73.68
48964;BME280;34776;48.180;16.420;2022-12-07T05:17:29;99661.63;;;5.87;73.72
48964;BME280;34776;48.180;16.420;2022-12-07T05:19:55;99661.72;;;5.84;73.52
48964;BME280;34776;48.180;16.420;2022-12-07T05:22:20;99654.72;;;5.83;73.59
48964;BME280;34776;48.180;16.420;2022-12-07T05:24:46;99656.66;;;5.78;73.29
48964;BME280;34776;48.180;16.420;2022-12-07T05:27:11;99655.84;;;5.76;73.74
48964;BME280;34776;48.180;16.420;2022-12-07T05:29:37;99664.75;;;5.74;73.39
48964;BME280;34776;48.180;16.420;2022-12-07T05:32:02;99653.09;;;5.79;73.49
48964;BME280;34776;48.180;16.420;2022-12-07T05:34:28;99655.66;;;5.82;73.32
48964;BME280;34776;48.180;16.420;2022-12-07T05:36:53;99654.72;;;5.83;73.12
48964;BME280;34776;48.180;16.420;2022-12-07T05:39:18;99657.31;;;5.85;73.25
48964;BME280;34776;48.180;16.420;2022-12-07T05:41:44;99656.28;;;5.89;72.94
48964;BME280;34776;48.180;16.420;2022-12-07T05:44:28;99650.16;;;5.88;72.92
48964;BME280;34776;48.180;16.420;2022-12-07T05:46:53;99655.53;;;5.85;72.77
48964;BME280;34776;48.180;16.420;2022-12-07T05:49:19;99663.34;;;5.88;72.96
48964;BME280;34776;48.180;16.420;2022-12-07T05:51:44;99659.75;;;5.91;72.79
48964;BME280;34776;48.180;16.420;2022-12-07T05:54:09;99655.25;;;5.95;72.58
48964;BME280;34776;48.180;16.420;2022-12-07T05:56:35;99661.41;;;5.94;72.23
48964;BME280;34776;48.180;16.420;2022-12-07T05:59:00;99663.97;;;5.97;72.44
48964;BME280;34776;48.180;16.420;2022-12-07T06:01:44;99665.66;;;5.99;72.07
48964;BME280;34776;48.180;16.420;2022-12-07T06:04:09;99668.31;;;5.98;72.12
48964;BME280;34776;48.180;16.420;2022-12-07T06:06:35;99669.13;;;6.00;72.12
48964;BME280;34776;48.180;16.420;2022-12-07T06:09:00;99666.50;;;6.00;72.11
48964;BME280;34776;48.180;16.420;2022-12-07T06:11:26;99671.59;;;6.04;72.11
48964;BME280;34776;48.180;16.420;2022-12-07T06:14:10;99668.03;;;6.07;71.82
48964;BME280;34776;48.180;16.420;2022-12-07T06:16:35;99672.63;;;6.00;71.63
48964;BME280;34776;48.180;16.420;2022-12-07T06:19:01;99669.94;;;6.02;71.68
48964;BME280;34776;48.180;16.420;2022-12-07T06:21:26;99674.53;;;5.97;71.50
48964;BME280;34776;48.180;16.420;2022-12-07T06:23:52;99672.75;;;5.97;71.29
48964;BME280;34776;48.180;16.420;2022-12-07T06:26:17;99672.63;;;6.00;71.44
48964;BME280;34776;48.180;16.420;2022-12-07T06:28:43;99668.25;;;6.01;71.38
48964;BME280;34776;48.180;16.420;2022-12-07T06:31:08;99669.03;;;6.03;71.56
48964;BME280;34776;48.180;16.420;2022-12-07T06:33:34;99668.88;;;6.07;71.56
48964;BME280;34776;48.180;16.420;2022-12-07T06:36:00;99667.22;;;6.05;71.29
48964;BME280;34776;48.180;16.420;2022-12-07T06:38:25;99664.47;;;6.08;71.25
48964;BME280;34776;48.180;16.420;2022-12-07T06:40:50;99671.50;;;6.07;71.43
48964;BME280;34776;48.180;16.420;2022-12-07T06:43:16;99678.56;;;6.07;71.31
48964;BME280;34776;48.180;16.420;2022-12-07T06:45:41;99675.94;;;6.07;71.03
48964;BME280;34776;48.180;16.420;2022-12-07T06:48:07;99683.84;;;6.07;71.23
48964;BME280;34776;48.180;16.420;2022-12-07T06:50:32;99682.03;;;6.09;71.21
48964;BME280;34776;48.180;16.420;2022-12-07T06:52:57;99676.78;;;6.07;70.94
48964;BME280;34776;48.180;16.420;2022-12-07T06:55:23;99670.75;;;6.04;70.99
48964;BME280;34776;48.180;16.420;2022-12-07T06:57:48;99675.22;;;6.02;71.01
48964;BME280;34776;48.180;16.420;2022-12-07T07:00:14;99680.41;;;6.05;70.81
48964;BME280;34776;48.180;16.420;2022-12-07T07:02:39;99683.72;;;6.10;70.76
48964;BME280;34776;48.180;16.420;2022-12-07T07:05:05;99676.41;;;6.18;70.86
48964;BME280;34776;48.180;16.420;2022-12-07T07:07:30;99679.84;;;6.20;70.60
48964;BME280;34776;48.180;16.420;2022-12-07T07:09:56;99680.72;;;6.21;70.56
48964;BME280;34776;48.180;16.420;2022-12-07T07:12:21;99678.81;;;6.24;70.67
48964;BME280;34776;48.180;16.420;2022-12-07T07:14:47;99683.09;;;6.28;70.47
48964;BME280;34776;48.180;16.420;2022-12-07T07:17:12;99678.63;;;6.30;70.33
48964;BME280;34776;48.180;16.420;2022-12-07T07:19:37;99682.06;;;6.33;70.12
48964;BME280;34776;48.180;16.420;2022-12-07T07:22:03;99682.97;;;6.32;69.98
48964;BME280;34776;48.180;16.420;2022-12-07T07:24:29;99682.00;;;6.34;69.92
48964;BME280;34776;48.180;16.420;2022-12-07T07:26:54;99683.72;;;6.35;69.72
48964;BME280;34776;48.180;16.420;2022-12-07T07:29:20;99688.88;;;6.38;69.52
48964;BME280;34776;48.180;16.420;2022-12-07T07:31:45;99699.50;;;6.37;69.39
48964;BME280;34776;48.180;16.420;2022-12-07T07:34:11;99696.75;;;6.40;69.53
48964;BME280;34776;48.180;16.420;2022-12-07T07:36:36;99701.81;;;6.46;69.39
48964;BME280;34776;48.180;16.420;2022-12-07T07:39:02;99698.13;;;6.50;69.33
48964;BME280;34776;48.180;16.420;2022-12-07T07:41:27;99698.13;;;6.50;68.94
48964;BME280;34776;48.180;16.420;2022-12-07T07:43:52;99697.16;;;6.53;68.90
48964;BME280;34776;48.180;16.420;2022-12-07T07:46:18;99701.56;;;6.52;68.77
48964;BME280;34776;48.180;16.420;2022-12-07T07:48:43;99700.72;;;6.52;68.69
48964;BME280;34776;48.180;16.420;2022-12-07T07:51:09;99700.72;;;6.52;68.33
48964;BME280;34776;48.180;16.420;2022-12-07T07:53:34;99703.19;;;6.56;68.37
48964;BME280;34776;48.180;16.420;2022-12-07T07:56:00;99696.97;;;6.57;68.25
48964;BME280;34776;48.180;16.420;2022-12-07T07:58:25;99691.78;;;6.56;68.21
48964;BME280;34776;48.180;16.420;2022-12-07T08:00:51;99688.16;;;6.58;68.40
48964;BME280;34776;48.180;16.420;2022-12-07T08:03:17;99689.53;;;6.68;68.49
48964;BME280;34776;48.180;16.420;2022-12-07T08:05:42;99700.72;;;6.75;67.78
48964;BME280;34776;48.180;16.420;2022-12-07T08:08:08;99700.09;;;6.68;67.49
48964;BME280;34776;48.180;16.420;2022-12-07T08:10:33;99711.69;;;6.64;67.11
48964;BME280;34776;48.180;16.420;2022-12-07T08:13:00;99710.19;;;6.57;67.24
48964;BME280;34776;48.180;16.420;2022-12-07T08:15:47;99710.09;;;6.60;67.22
48964;BME280;34776;48.180;16.420;2022-12-07T08:18:13;99711.56;;;6.67;67.31
48964;BME280;34776;48.180;16.420;2022-12-07T08:20:40;99706.94;;;6.74;67.14
48964;BME280;34776;48.180;16.420;2022-12-07T08:23:07;99709.63;;;6.73;66.83
48964;BME280;34776;48.180;16.420;2022-12-07T08:25:33;99714.78;;;6.76;66.79
48964;BME280;34776;48.180;16.420;2022-12-07T08:27:58;99722.47;;;6.82;66.57
48964;BME280;34776;48.180;16.420;2022-12-07T08:30:28;99710.63;;;6.70;66.69
48964;BME280;34776;48.180;16.420;2022-12-07T08:32:53;99719.97;;;6.79;66.93
48964;BME280;34776;48.180;16.420;2022-12-07T08:35:19;99722.38;;;6.85;66.30
48964;BME280;34776;48.180;16.420;2022-12-07T08:37:44;99721.84;;;6.99;66.46
48964;BME280;34776;48.180;16.420;2022-12-07T08:40:12;99730.63;;;7.23;66.10
48964;BME280;34776;48.180;16.420;2022-12-07T08:42:48;99739.13;;;7.31;65.47
48964;BME280;34776;48.180;16.420;2022-12-07T08:45:15;99733.47;;;7.40;65.59
48964;BME280;34776;48.180;16.420;2022-12-07T08:47:44;99744.28;;;7.34;64.52
48964;BME280;34776;48.180;16.420;2022-12-07T08:50:11;99745.13;;;7.35;64.66
48964;BME280;34776;48.180;16.420;2022-12-07T08:52:38;99741.53;;;7.37;64.62
48964;BME280;34776;48.180;16.420;2022-12-07T08:55:05;99740.09;;;7.50;64.64
48964;BME280;34776;48.180;16.420;2022-12-07T08:57:33;99741.94;;;7.48;63.43
48964;BME280;34776;48.180;16.420;2022-12-07T08:59:59;99746.00;;;7.35;63.19
48964;BME280;34776;48.180;16.420;2022-12-07T09:02:24;99750.34;;;7.36;63.58
48964;BME280;34776;48.180;16.420;2022-12-07T09:04:50;99746.50;;;7.45;62.97
48964;BME280;34776;48.180;16.420;2022-12-07T09:07:15;99751.84;;;7.43;62.62
48964;BME280;34776;48.180;16.420;2022-12-07T09:09:41;99747.72;;;7.36;62.33
48964;BME280;34776;48.180;16.420;2022-12-07T09:12:07;99740.53;;;7.40;61.95
48964;BME280;34776;48.180;16.420;2022-12-07T09:14:32;99743.00;;;7.44;61.55
48964;BME280;34776;48.180;16.420;2022-12-07T09:17:11;99741.06;;;7.26;61.21
48964;BME280;34776;48.180;16.420;2022-12-07T09:19:37;99730.25;;;7.32;61.65
48964;BME280;34776;48.180;16.420;2022-12-07T09:22:03;99736.22;;;7.37;61.29
48964;BME280;34776;48.180;16.420;2022-12-07T09:24:30;99724.63;;;7.18;60.93
48964;BME280;34776;48.180;16.420;2022-12-07T09:26:56;99731.44;;;7.01;60.97
48964;BME280;34776;48.180;16.420;2022-12-07T09:29:22;99725.25;;;6.79;61.25
48964;BME280;34776;48.180;16.420;2022-12-07T09:31:47;99722.03;;;6.70;61.36
48964;BME280;34776;48.180;16.420;2022-12-07T09:34:12;99729.59;;;6.56;61.42
48964;BME280;34776;48.180;16.420;2022-12-07T09:36:38;99718.28;;;6.53;61.89
48964;BME280;34776;48.180;16.420;2022-12-07T09:39:03;99721.44;;;6.62;61.94
48964;BME280;34776;48.180;16.420;2022-12-07T09:41:31;99726.16;;;6.54;61.25
48964;BME280;34776;48.180;16.420;2022-12-07T09:44:06;99729.59;;;6.56;61.62
48964;BME280;34776;48.180;16.420;2022-12-07T09:46:37;99717.34;;;6.79;61.26
48964;BME280;34776;48.180;16.420;2022-12-07T09:49:04;99728.00;;;6.99;61.21
48964;BME280;34776;48.180;16.420;2022-12-07T09:51:31;99735.91;;;7.23;60.82
48964;BME280;34776;48.180;16.420;2022-12-07T09:53:57;99718.22;;;7.25;59.82
48964;BME280;34776;48.180;16.420;2022-12-07T09:56:24;99731.03;;;7.12;59.84
48964;BME280;34776;48.180;16.420;2022-12-07T09:58:54;99715.84;;;6.95;60.17
48964;BME280;34776;48.180;16.420;2022-12-07T10:01:21;99722.59;;;7.02;60.64
48964;BME280;34776;48.180;16.420;2022-12-07T10:03:55;99718.06;;;7.06;59.93
48964;BME280;34776;48.180;16.420;2022-12-07T10:06:24;99714.22;;;6.91;59.76
48964;BME280;34776;48.180;16.420;2022-12-07T10:08:49;99719.44;;;6.93;59.98
48964;BME280;34776;48.180;16.420;2022-12-07T10:11:14;99706.97;;;6.96;60.29
48964;BME280;34776;48.180;16.420;2022-12-07T10:13:47;99723.34;;;7.06;59.37
48964;BME280;34776;48.180;16.420;2022-12-07T10:19:28;99708.06;;;6.90;58.09
48964;BME280;34776;48.180;16.420;2022-12-07T10:24:29;99697.41;;;7.16;59.54
48964;BME280;34776;48.180;16.420;2022-12-07T10:26:55;99696.94;;;7.50;59.25
48964;BME280;34776;48.180;16.420;2022-12-07T10:29:30;99706.50;;;7.75;57.98
48964;BME280;34776;48.180;16.420;2022-12-07T10:32:02;99711.88;;;7.73;57.28
48964;BME280;34776;48.180;16.420;2022-12-07T10:34:31;99707.44;;;7.73;56.93
48964;BME280;34776;48.180;16.420;2022-12-07T10:39:50;99681.72;;;7.98;55.53
48964;BME280;34776;48.180;16.420;2022-12-07T10:42:30;99689.53;;;7.80;54.70
48964;BME280;34776;48.180;16.420;2022-12-07T10:47:51;99696.91;;;7.72;55.56
48964;BME280;34776;48.180;16.420;2022-12-07T10:53:24;99683.56;;;7.96;55.56
48964;BME280;34776;48.180;16.420;2022-12-07T10:56:07;99686.91;;;8.01;55.17
48964;BME280;34776;48.180;16.420;2022-12-07T10:58:57;99688.06;;;7.73;53.66
48964;BME280;34776;48.180;16.420;2022-12-07T11:04:07;99687.72;;;7.38;55.26
48964;BME280;34776;48.180;16.420;2022-12-07T11:12:50;99686.81;;;7.39;55.72
48964;BME280;34776;48.180;16.420;2022-12-07T11:18:19;99679.13;;;7.33;54.96
48964;BME280;34776;48.180;16.420;2022-12-07T11:23:44;99668.19;;;7.20;55.10
48964;BME280;34776;48.180;16.420;2022-12-07T11:32:34;99662.47;;;7.31;55.69
48964;BME280;34776;48.180;16.420;2022-12-07T11:37:28;99658.47;;;7.21;55.63
48964;BME280;34776;48.180;16.420;2022-12-07T11:40:02;99661.13;;;7.21;56.21
48964;BME280;34776;48.180;16.420;2022-12-07T11:42:37;99662.78;;;7.23;55.76
48964;BME280;34776;48.180;16.420;2022-12-07T11:45:16;99658.72;;;7.15;55.30
48964;BME280;34776;48.180;16.420;2022-12-07T11:47:47;99657.34;;;7.04;56.41
48964;BME280;34776;48.180;16.420;2022-12-07T11:50:36;99658.06;;;6.86;54.31
48964;BME280;34776;48.180;16.420;2022-12-07T11:58:04;99660.94;;;6.56;55.55
48964;BME280;34776;48.180;16.420;2022-12-07T12:00:35;99653.00;;;6.80;55.32
48964;BME280;34776;48.180;16.420;2022-12-07T12:03:14;99657.81;;;6.92;55.58
48964;BME280;34776;48.180;16.420;2022-12-07T12:05:41;99658.72;;;7.15;55.24
48964;BME280;34776;48.180;16.420;2022-12-07T12:08:16;99645.56;;;7.35;54.35
48964;BME280;34776;48.180;16.420;2022-12-07T12:16:38;99648.97;;;7.59;53.40
48964;BME280;34776;48.180;16.420;2022-12-07T12:19:21;99647.72;;;7.68;53.89
48964;BME280;34776;48.180;16.420;2022-12-07T12:21:54;99640.72;;;7.67;53.77
48964;BME280;34776;48.180;16.420;2022-12-07T12:24:25;99637.03;;;7.71;53.78
48964;BME280;34776;48.180;16.420;2022-12-07T12:26:59;99635.63;;;7.62;53.67
48964;BME280;34776;48.180;16.420;2022-12-07T12:29:38;99638.72;;;7.72;52.98
48964;BME280;34776;48.180;16.420;2022-12-07T12:37:40;99624.72;;;7.70;51.83
48964;BME280;34776;48.180;16.420;2022-12-07T12:40:37;99631.06;;;7.66;53.58
48964;BME280;34776;48.180;16.420;2022-12-07T12:42:57;99622.06;;;7.70;53.98
48964;BME280;34776;48.180;16.420;2022-12-07T12:45:33;99627.25;;;7.73;53.06
48964;BME280;34776;48.180;16.420;2022-12-07T12:48:04;99626.56;;;7.68;53.67
48964;BME280;34776;48.180;16.420;2022-12-07T12:53:13;99623.13;;;7.66;52.60
48964;BME280;34776;48.180;16.420;2022-12-07T13:00:47;99616.63;;;7.52;53.35
48964;BME280;34776;48.180;16.420;2022-12-07T13:03:28;99616.88;;;7.46;52.87
48964;BME280;34776;48.180;16.420;2022-12-07T13:08:53;99631.22;;;7.41;53.13
48964;BME280;34776;48.180;16.420;2022-12-07T13:11:35;99629.22;;;7.25;52.39
48964;BME280;34776;48.180;16.420;2022-12-07T13:17:03;99632.41;;;7.11;53.99
48964;BME280;34776;48.180;16.420;2022-12-07T13:23:10;99630.94;;;7.04;52.78
48964;BME280;34776;48.180;16.420;2022-12-07T13:27:48;99628.59;;;6.97;53.88
48964;BME280;34776;48.180;16.420;2022-12-07T13:30:19;99645.56;;;6.91;54.17
48964;BME280;34776;48.180;16.420;2022-12-07T13:32:56;99637.16;;;6.80;52.97
48964;BME280;34776;48.180;16.420;2022-12-07T13:35:31;99637.31;;;6.77;53.79
48964;BME280;34776;48.180;16.420;2022-12-07T13:37:56;99625.13;;;6.73;54.15
48964;BME280;34776;48.180;16.420;2022-12-07T13:40:23;99637.78;;;6.64;54.21
48964;BME280;34776;48.180;16.420;2022-12-07T13:43:03;99634.44;;;6.59;54.07
48964;BME280;34776;48.180;16.420;2022-12-07T13:45:33;99641.53;;;6.57;54.26
48964;BME280;34776;48.180;16.420;2022-12-07T13:48:19;99638.97;;;6.56;54.80
48964;BME280;34776;48.180;16.420;2022-12-07T13:50:53;99633.63;;;6.57;54.65
48964;BME280;34776;48.180;16.420;2022-12-07T13:53:20;99630.88;;;6.60;54.67
48964;BME280;34776;48.180;16.420;2022-12-07T13:55:46;99630.88;;;6.60;54.92
48964;BME280;34776;48.180;16.420;2022-12-07T13:58:12;99630.88;;;6.60;54.89
48964;BME280;34776;48.180;16.420;2022-12-07T14:00:39;99633.75;;;6.54;55.33
48964;BME280;34776;48.180;16.420;2022-12-07T14:05:38;99629.69;;;6.45;55.01
48964;BME280;34776;48.180;16.420;2022-12-07T14:08:06;99632.59;;;6.38;54.98
48964;BME280;34776;48.180;16.420;2022-12-07T14:13:38;99631.38;;;6.23;55.00
48964;BME280;34776;48.180;16.420;2022-12-07T14:18:44;99638.63;;;6.18;55.92
48964;BME280;34776;48.180;16.420;2022-12-07T14:23:35;99631.91;;;6.09;56.05
48964;BME280;34776;48.180;16.420;2022-12-07T14:26:15;99641.75;;;6.04;56.11
48964;BME280;34776;48.180;16.420;2022-12-07T14:28:44;99646.34;;;5.99;56.70
48964;BME280;34776;48.180;16.420;2022-12-07T14:31:21;99642.13;;;5.92;56.70
48964;BME280;34776;48.180;16.420;2022-12-07T14:33:49;99644.72;;;5.93;57.02
48964;BME280;34776;48.180;16.420;2022-12-07T14:36:14;99648.22;;;5.95;57.08
48964;BME280;34776;48.180;16.420;2022-12-07T14:38:40;99643.78;;;5.96;57.21
48964;BME280;34776;48.180;16.420;2022-12-07T14:41:12;99646.34;;;5.99;57.30
48964;BME280;34776;48.180;16.420;2022-12-07T14:43:58;99641.88;;;6.01;57.37
48964;BME280;34776;48.180;16.420;2022-12-07T14:46:23;99640.94;;;6.02;57.45
48964;BME280;34776;48.180;16.420;2022-12-07T14:48:49;99641.06;;;5.99;57.42
48964;BME280;34776;48.180;16.420;2022-12-07T14:51:15;99643.88;;;5.93;57.69
48964;BME280;34776;48.180;16.420;2022-12-07T14:53:48;99643.28;;;5.84;57.99
48964;BME280;34776;48.180;16.420;2022-12-07T14:56:15;99645.16;;;5.81;58.01
48964;BME280;34776;48.180;16.420;2022-12-07T14:58:40;99640.94;;;5.75;58.25
48964;BME280;34776;48.180;16.420;2022-12-07T15:01:06;99653.31;;;5.73;58.49
48964;BME280;34776;48.180;16.420;2022-12-07T15:03:31;99645.31;;;5.76;58.60
48964;BME280;34776;48.180;16.420;2022-12-07T15:05:57;99646.94;;;5.80;58.61
48964;BME280;34776;48.180;16.420;2022-12-07T15:08:23;99647.63;;;5.85;58.73
48964;BME280;34776;48.180;16.420;2022-12-07T15:10:49;99651.94;;;5.88;58.57
48964;BME280;34776;48.180;16.420;2022-12-07T15:13:14;99661.34;;;5.97;58.48
48964;BME280;34776;48.180;16.420;2022-12-07T15:15:59;99662.19;;;5.97;58.35